Time;durP1;ratioP1;P1;durP2;ratioP2;P2;SDS_P1;SDS_P2;PMS_P1;PMS_P2;Temp;Humidity;BMP_temperature;BMP_pressure;BME280_temperature;BME280_humidity;BME280_pressure;Samples;Min_cycle;Max_cycle;Signal;HPM_P1;HPM_P2
2021/09/12 00:00:48;;;;;;;3.95;3.65;;;;;;;;;;4685023;30;20199;-85
2021/09/12 00:03:15;;;;;;;3.72;3.42;;;;;;;;;;4684877;30;20234;-86
2021/09/12 00:05:42;;;;;;;2.65;2.45;;;;;;;;;;4684684;30;20699;-84
2021/09/12 00:08:10;;;;;;;2.72;2.53;;;;;;;;;;4684963;30;20216;-85
2021/09/12 00:10:38;;;;;;;2.33;2.13;;;;;;;;;;4685074;30;20206;-85
2021/09/12 00:13:05;;;;;;;2.20;2.05;;;;;;;;;;4684411;30;20227;-85
2021/09/12 00:15:33;;;;;;;2.42;2.22;;;;;;;;;;4684825;30;20222;-85
2021/09/12 00:18:01;;;;;;;4.88;3.20;;;;;;;;;;4684509;30;20224;-85
2021/09/12 00:20:29;;;;;;;2.70;2.50;;;;;;;;;;4684543;30;20199;-85
2021/09/12 00:22:56;;;;;;;5.45;3.28;;;;;;;;;;4684159;30;20250;-85
2021/09/12 00:25:24;;;;;;;3.08;2.88;;;;;;;;;;4684495;30;20211;-86
2021/09/12 00:27:51;;;;;;;3.50;3.20;;;;;;;;;;4684394;30;20207;-85
2021/09/12 00:30:19;;;;;;;3.13;2.92;;;;;;;;;;4683672;30;20211;-85
2021/09/12 00:32:46;;;;;;;2.90;2.67;;;;;;;;;;4684161;30;20235;-85
2021/09/12 00:35:15;;;;;;;3.40;3.10;;;;;;;;;;4684188;30;20215;-85
2021/09/12 00:37:43;;;;;;;2.70;2.50;;;;;;;;;;4684452;30;20219;-83
2021/09/12 00:40:12;;;;;;;3.13;2.92;;;;;;;;;;4684738;30;20215;-84
2021/09/12 00:42:39;;;;;;;2.83;2.63;;;;;;;;;;4667874;30;20246;-85
2021/09/12 00:45:07;;;;;;;2.45;2.25;;;;;;;;;;4667990;30;20203;-84
2021/09/12 00:47:35;;;;;;;2.55;2.35;;;;;;;;;;4666655;30;20224;-85
2021/09/12 00:50:02;;;;;;;2.03;1.92;;;;;;;;;;4666873;30;20207;-86
2021/09/12 00:52:33;;;;;;;1.85;1.75;;;;;;;;;;4666348;30;20236;-85
2021/09/12 00:55:02;;;;;;;2.10;2.00;;;;;;;;;;4666682;30;20200;-85
2021/09/12 00:57:32;;;;;;;1.65;1.55;;;;;;;;;;4666460;30;20216;-86
2021/09/12 01:00:00;;;;;;;2.17;2.08;;;;;;;;;;4666689;30;20243;-84
2021/09/12 01:02:27;;;;;;;3.28;3.00;;;;;;;;;;4666454;30;20239;-85
2021/09/12 01:04:55;;;;;;;2.13;2.03;;;;;;;;;;4666566;30;20223;-85
2021/09/12 01:07:22;;;;;;;2.30;2.10;;;;;;;;;;4666121;30;20198;-85
2021/09/12 01:09:51;;;;;;;2.22;2.10;;;;;;;;;;4666900;30;20201;-85
2021/09/12 01:12:20;;;;;;;2.80;2.60;;;;;;;;;;4666374;30;20739;-86
2021/09/12 01:14:47;;;;;;;2.60;2.40;;;;;;;;;;4676847;30;20215;-85
2021/09/12 01:17:15;;;;;;;2.20;2.10;;;;;;;;;;4683739;30;20210;-85
2021/09/12 01:19:42;;;;;;;2.15;2.05;;;;;;;;;;4683418;30;20230;-86
2021/09/12 01:22:10;;;;;;;2.85;2.65;;;;;;;;;;4683673;30;20243;-86
2021/09/12 01:24:38;;;;;;;2.63;2.42;;;;;;;;;;4683334;30;20222;-86
2021/09/12 01:27:06;;;;;;;2.75;2.55;;;;;;;;;;4683093;30;20216;-85
2021/09/12 01:29:34;;;;;;;2.08;1.98;;;;;;;;;;4683429;30;20656;-85
2021/09/12 01:32:01;;;;;;;1.70;1.60;;;;;;;;;;4683288;30;20746;-85
2021/09/12 01:34:29;;;;;;;1.80;1.70;;;;;;;;;;4683326;30;20211;-86
2021/09/12 01:36:56;;;;;;;2.30;2.20;;;;;;;;;;4682120;30;20226;-85
2021/09/12 01:39:24;;;;;;;2.30;2.10;;;;;;;;;;4683247;30;20234;-85
2021/09/12 01:41:53;;;;;;;1.83;1.73;;;;;;;;;;4682863;30;20211;-85
2021/09/12 01:44:24;;;;;;;2.33;2.22;;;;;;;;;;4682892;30;20584;-84
2021/09/12 01:46:52;;;;;;;1.80;1.70;;;;;;;;;;4683462;30;20210;-86
2021/09/12 01:49:19;;;;;;;1.77;1.67;;;;;;;;;;4682847;30;20211;-85
2021/09/12 01:51:47;;;;;;;1.80;1.70;;;;;;;;;;4683258;30;20291;-85
2021/09/12 01:54:14;;;;;;;1.88;1.77;;;;;;;;;;4683293;30;20608;-85
2021/09/12 01:56:43;;;;;;;2.15;2.05;;;;;;;;;;4683629;30;20211;-85
2021/09/12 01:59:12;;;;;;;2.55;2.28;;;;;;;;;;4683145;30;20223;-84
2021/09/12 02:01:39;;;;;;;2.05;1.95;;;;;;;;;;4683226;30;20540;-85
2021/09/12 02:04:07;;;;;;;2.10;2.00;;;;;;;;;;4682988;30;20211;-84
2021/09/12 02:06:34;;;;;;;2.83;2.63;;;;;;;;;;4682880;30;20218;-85
2021/09/12 02:09:01;;;;;;;2.55;2.35;;;;;;;;;;4683832;30;20215;-85
2021/09/12 02:11:29;;;;;;;2.00;1.90;;;;;;;;;;4682474;30;20221;-84
2021/09/12 02:13:57;;;;;;;2.63;2.42;;;;;;;;;;4683128;30;20254;-85
2021/09/12 02:16:26;;;;;;;3.30;2.97;;;;;;;;;;4682610;30;20200;-86
2021/09/12 02:18:54;;;;;;;2.42;2.22;;;;;;;;;;4681687;30;20246;-85
2021/09/12 02:21:21;;;;;;;3.35;2.30;;;;;;;;;;4682382;30;20211;-84
2021/09/12 02:23:49;;;;;;;1.77;1.67;;;;;;;;;;4682266;30;20258;-85
2021/09/12 02:26:16;;;;;;;2.15;2.05;;;;;;;;;;4682686;30;20204;-85
2021/09/12 02:28:43;;;;;;;2.10;2.00;;;;;;;;;;4681610;30;20218;-84
2021/09/12 02:31:11;;;;;;;2.10;2.00;;;;;;;;;;4680930;30;20210;-85
2021/09/12 02:33:40;;;;;;;2.50;2.30;;;;;;;;;;4682732;30;20257;-86
2021/09/12 02:36:08;;;;;;;2.42;2.22;;;;;;;;;;4682587;30;20195;-86
2021/09/12 02:38:35;;;;;;;2.97;2.78;;;;;;;;;;4682794;30;20217;-85
2021/09/12 02:41:04;;;;;;;1.90;1.80;;;;;;;;;;4682816;30;20286;-84
2021/09/12 02:43:31;;;;;;;2.03;1.92;;;;;;;;;;4683101;30;20239;-86
2021/09/12 02:45:59;;;;;;;1.50;1.40;;;;;;;;;;4683019;30;20191;-85
2021/09/12 02:48:26;;;;;;;1.90;1.80;;;;;;;;;;4683201;30;20568;-84
2021/09/12 02:50:55;;;;;;;1.85;1.75;;;;;;;;;;4682482;30;20742;-86
2021/09/12 02:53:23;;;;;;;2.08;1.98;;;;;;;;;;4682587;30;20261;-85
2021/09/12 02:55:50;;;;;;;1.73;1.63;;;;;;;;;;4683273;30;20195;-84
2021/09/12 02:58:17;;;;;;;1.83;1.73;;;;;;;;;;4682522;30;20195;-86
2021/09/12 03:00:45;;;;;;;1.80;1.70;;;;;;;;;;4683055;30;20219;-85
2021/09/12 03:03:12;;;;;;;2.03;1.90;;;;;;;;;;4684012;30;20235;-85
2021/09/12 03:05:40;;;;;;;2.90;2.70;;;;;;;;;;4684457;30;20652;-86
2021/09/12 03:08:09;;;;;;;2.50;2.30;;;;;;;;;;4684280;30;20222;-85
2021/09/12 03:10:36;;;;;;;3.10;2.90;;;;;;;;;;4683422;30;20226;-85
2021/09/12 03:13:04;;;;;;;2.80;2.60;;;;;;;;;;4681928;30;20323;-86
2021/09/12 03:15:32;;;;;;;2.25;2.15;;;;;;;;;;4681617;30;20679;-85
2021/09/12 03:17:59;;;;;;;2.70;2.50;;;;;;;;;;4682153;30;20199;-85
2021/09/12 03:20:27;;;;;;;3.08;2.88;;;;;;;;;;4682389;30;20227;-84
2021/09/12 03:22:55;;;;;;;3.53;3.25;;;;;;;;;;4664480;30;20251;-84
2021/09/12 03:25:23;;;;;;;2.90;2.70;;;;;;;;;;4664964;30;20684;-86
2021/09/12 03:27:53;;;;;;;2.70;2.50;;;;;;;;;;4666713;30;20603;-85
2021/09/12 03:30:21;;;;;;;2.13;2.00;;;;;;;;;;4668232;30;20242;-85
2021/09/12 03:32:49;;;;;;;2.63;2.42;;;;;;;;;;4685535;30;20318;-86
2021/09/12 03:35:16;;;;;;;1.98;1.88;;;;;;;;;;4687357;30;20223;-85
2021/09/12 03:37:44;;;;;;;2.00;1.90;;;;;;;;;;4688459;30;20302;-85
2021/09/12 03:40:13;;;;;;;2.58;2.38;;;;;;;;;;4687286;30;20243;-86
2021/09/12 03:42:41;;;;;;;2.20;2.10;;;;;;;;;;4683833;30;20263;-86
2021/09/12 03:45:10;;;;;;;2.33;2.20;;;;;;;;;;4684964;30;20685;-86
2021/09/12 03:47:38;;;;;;;1.60;1.50;;;;;;;;;;4686598;30;20225;-85
2021/09/12 03:50:07;;;;;;;1.75;1.65;;;;;;;;;;4685149;30;20222;-85
2021/09/12 03:52:34;;;;;;;1.60;1.50;;;;;;;;;;4684014;30;20235;-86
2021/09/12 03:55:02;;;;;;;3.38;2.30;;;;;;;;;;4684927;30;20211;-85
2021/09/12 03:57:29;;;;;;;2.58;2.38;;;;;;;;;;4684431;30;20215;-85
2021/09/12 03:59:58;;;;;;;1.60;1.50;;;;;;;;;;4684189;30;20227;-85
2021/09/12 04:02:25;;;;;;;2.35;2.10;;;;;;;;;;4684546;30;20226;-85
2021/09/12 04:04:53;;;;;;;1.95;1.85;;;;;;;;;;4684705;30;20200;-85
2021/09/12 04:07:20;;;;;;;1.60;1.50;;;;;;;;;;4684861;30;20222;-85
2021/09/12 04:09:48;;;;;;;1.90;1.80;;;;;;;;;;4684877;30;20203;-85
2021/09/12 04:12:15;;;;;;;1.60;1.50;;;;;;;;;;4683736;30;20242;-86
2021/09/12 04:14:43;;;;;;;2.63;2.42;;;;;;;;;;4684670;30;20221;-86
2021/09/12 04:17:12;;;;;;;2.00;1.90;;;;;;;;;;4684261;30;20198;-85
2021/09/12 04:19:39;;;;;;;1.55;1.45;;;;;;;;;;4684309;30;20298;-85
2021/09/12 04:22:07;;;;;;;2.13;1.70;;;;;;;;;;4683611;30;20233;-85
2021/09/12 04:24:34;;;;;;;1.98;1.88;;;;;;;;;;4685007;30;20222;-85
2021/09/12 04:27:02;;;;;;;1.77;1.67;;;;;;;;;;4684341;30;20294;-85
2021/09/12 04:29:29;;;;;;;2.03;1.92;;;;;;;;;;4684296;30;20209;-85
2021/09/12 04:31:57;;;;;;;2.60;2.40;;;;;;;;;;4683815;30;20588;-86
2021/09/12 04:34:26;;;;;;;3.70;3.40;;;;;;;;;;4684473;30;20210;-85
2021/09/12 04:36:53;;;;;;;2.75;2.47;;;;;;;;;;4684481;30;20283;-85
2021/09/12 04:39:21;;;;;;;2.20;2.00;;;;;;;;;;4684130;30;20226;-84
2021/09/12 04:41:48;;;;;;;2.05;1.85;;;;;;;;;;4682403;30;20239;-84
2021/09/12 04:44:16;;;;;;;1.95;1.85;;;;;;;;;;4683834;30;20222;-84
2021/09/12 04:46:43;;;;;;;1.42;1.33;;;;;;;;;;4683884;30;20200;-84
2021/09/12 04:49:11;;;;;;;2.03;1.92;;;;;;;;;;4684004;30;20211;-85
2021/09/12 04:51:39;;;;;;;2.28;2.08;;;;;;;;;;4683669;30;20200;-84
2021/09/12 04:54:07;;;;;;;1.58;1.48;;;;;;;;;;4683659;30;20832;-85
2021/09/12 04:56:36;;;;;;;2.50;2.30;;;;;;;;;;4684038;30;20203;-84
2021/09/12 04:59:04;;;;;;;2.55;2.22;;;;;;;;;;4683791;30;20194;-84
2021/09/12 05:01:32;;;;;;;2.05;1.88;;;;;;;;;;4682798;30;20610;-84
2021/09/12 05:04:00;;;;;;;1.42;1.33;;;;;;;;;;4683946;30;20234;-83
2021/09/12 05:06:27;;;;;;;1.70;1.60;;;;;;;;;;4683730;30;20574;-84
2021/09/12 05:08:56;;;;;;;1.85;1.75;;;;;;;;;;4683842;30;20195;-85
2021/09/12 05:11:24;;;;;;;2.47;2.28;;;;;;;;;;4683173;30;20564;-84
2021/09/12 05:13:54;;;;;;;3.10;2.80;;;;;;;;;;4683531;30;20238;-84
2021/09/12 05:16:22;;;;;;;3.67;2.80;;;;;;;;;;4683615;30;20211;-84
2021/09/12 05:18:51;;;;;;;1.98;1.88;;;;;;;;;;4683332;30;20306;-85
2021/09/12 05:21:18;;;;;;;1.75;1.65;;;;;;;;;;4682628;30;20710;-85
2021/09/12 05:23:46;;;;;;;2.67;2.47;;;;;;;;;;4683122;30;20363;-84
2021/09/12 05:26:15;;;;;;;2.25;2.15;;;;;;;;;;4683315;30;20198;-86
2021/09/12 05:28:43;;;;;;;1.90;1.80;;;;;;;;;;4682844;30;20213;-86
2021/09/12 05:31:10;;;;;;;1.73;1.63;;;;;;;;;;4682958;30;20219;-86
2021/09/12 05:33:38;;;;;;;2.42;2.22;;;;;;;;;;4683251;30;20621;-84
2021/09/12 05:36:06;;;;;;;1.70;1.60;;;;;;;;;;4683484;30;20204;-86
2021/09/12 05:38:33;;;;;;;1.20;1.20;;;;;;;;;;4683107;30;20214;-86
2021/09/12 05:41:01;;;;;;;2.53;2.33;;;;;;;;;;4682552;30;20235;-85
2021/09/12 05:43:29;;;;;;;1.88;1.77;;;;;;;;;;4682860;30;20235;-85
2021/09/12 05:45:57;;;;;;;1.70;1.60;;;;;;;;;;4682861;30;20214;-86
2021/09/12 05:48:24;;;;;;;1.95;1.85;;;;;;;;;;4682912;30;20577;-85
2021/09/12 05:50:52;;;;;;;1.70;1.60;;;;;;;;;;4683313;30;20630;-87
2021/09/12 05:53:21;;;;;;;3.65;2.80;;;;;;;;;;4681821;30;20235;-86
2021/09/12 05:55:48;;;;;;;2.45;2.25;;;;;;;;;;4682561;30;20305;-86
2021/09/12 05:58:16;;;;;;;2.67;2.47;;;;;;;;;;4682100;30;20602;-86
2021/09/12 06:00:45;;;;;;;2.35;2.15;;;;;;;;;;4682448;30;20204;-86
2021/09/12 06:03:12;;;;;;;1.80;1.70;;;;;;;;;;4681682;30;20239;-86
2021/09/12 06:05:40;;;;;;;1.40;1.40;;;;;;;;;;4682380;30;20219;-85
2021/09/12 06:08:07;;;;;;;1.75;1.65;;;;;;;;;;4682671;30;20203;-84
2021/09/12 06:10:35;;;;;;;1.63;1.52;;;;;;;;;;4681983;30;20260;-85
2021/09/12 06:13:04;;;;;;;2.80;2.15;;;;;;;;;;4681965;30;20239;-85
2021/09/12 06:15:32;;;;;;;1.65;1.50;;;;;;;;;;4682513;30;20195;-85
2021/09/12 06:18:01;;;;;;;1.60;1.50;;;;;;;;;;4681882;30;20226;-85
2021/09/12 06:20:28;;;;;;;2.45;2.35;;;;;;;;;;4682335;30;20678;-87
2021/09/12 06:22:56;;;;;;;3.22;2.92;;;;;;;;;;4681649;30;20242;-86
2021/09/12 06:25:23;;;;;;;2.80;2.60;;;;;;;;;;4682692;30;20211;-83
2021/09/12 06:27:51;;;;;;;2.88;2.50;;;;;;;;;;4682424;30;20214;-83
2021/09/12 06:30:19;;;;;;;2.05;1.95;;;;;;;;;;4682009;30;20211;-87
2021/09/12 06:32:47;;;;;;;2.28;2.17;;;;;;;;;;4682259;30;20238;-85
2021/09/12 06:35:16;;;;;;;1.85;1.75;;;;;;;;;;4682673;30;20578;-82
2021/09/12 06:37:44;;;;;;;2.05;1.95;;;;;;;;;;4682187;30;20199;-82
2021/09/12 06:40:13;;;;;;;2.88;2.67;;;;;;;;;;4681365;30;20238;-84
2021/09/12 06:42:41;;;;;;;3.00;2.50;;;;;;;;;;4682038;30;20359;-84
2021/09/12 06:45:09;;;;;;;2.10;2.00;;;;;;;;;;4682177;30;20222;-83
2021/09/12 06:47:37;;;;;;;2.90;2.70;;;;;;;;;;4681810;30;20225;-85
2021/09/12 06:50:06;;;;;;;2.60;2.40;;;;;;;;;;4667228;30;20211;-84
2021/09/12 06:52:36;;;;;;;2.25;2.15;;;;;;;;;;4664673;30;20275;-85
2021/09/12 06:55:04;;;;;;;2.80;2.60;;;;;;;;;;4663879;30;20204;-82
2021/09/12 06:57:32;;;;;;;3.78;2.70;;;;;;;;;;4664852;30;20196;-82
2021/09/12 06:59:59;;;;;;;3.15;2.95;;;;;;;;;;4682249;30;20207;-85
2021/09/12 07:02:26;;;;;;;2.95;2.70;;;;;;;;;;4682305;30;20239;-83
2021/09/12 07:04:54;;;;;;;2.60;2.40;;;;;;;;;;4683277;30;20196;-82
2021/09/12 07:07:21;;;;;;;2.08;1.98;;;;;;;;;;4685641;30;20690;-82
2021/09/12 07:09:50;;;;;;;1.80;1.70;;;;;;;;;;4685613;30;20199;-84
2021/09/12 07:12:18;;;;;;;2.38;2.20;;;;;;;;;;4685687;30;20789;-85
2021/09/12 07:14:45;;;;;;;2.78;2.58;;;;;;;;;;4685566;30;20199;-83
2021/09/12 07:17:13;;;;;;;2.60;2.40;;;;;;;;;;4685308;30;20215;-85
2021/09/12 07:19:40;;;;;;;1.80;1.70;;;;;;;;;;4685341;30;20643;-85
2021/09/12 07:22:08;;;;;;;2.17;2.00;;;;;;;;;;4685077;30;20718;-84
2021/09/12 07:24:35;;;;;;;2.20;2.00;;;;;;;;;;4685257;30;20214;-85
2021/09/12 07:27:04;;;;;;;1.88;1.77;;;;;;;;;;4685565;30;20199;-86
2021/09/12 07:29:38;;;;;;;2.28;2.13;;;;;;;;;;4685225;30;20209;-90
2021/09/12 07:32:06;;;;;;;2.50;2.30;;;;;;;;;;4685482;30;20239;-86
2021/09/12 07:34:34;;;;;;;2.05;1.75;;;;;;;;;;4685278;30;20222;-84
2021/09/12 07:37:02;;;;;;;2.08;1.98;;;;;;;;;;4685389;30;20561;-84
2021/09/12 07:39:30;;;;;;;2.70;2.50;;;;;;;;;;4683780;30;20194;-84
2021/09/12 07:42:00;;;;;;;2.83;2.63;;;;;;;;;;4685240;30;20242;-84
2021/09/12 07:44:29;;;;;;;2.38;2.17;;;;;;;;;;4684540;30;20195;-85
2021/09/12 07:46:57;;;;;;;2.67;2.47;;;;;;;;;;4685218;30;20203;-85
2021/09/12 07:49:24;;;;;;;3.60;2.47;;;;;;;;;;4685126;30;20223;-86
2021/09/12 07:51:52;;;;;;;2.42;2.22;;;;;;;;;;4685561;30;20246;-86
2021/09/12 07:54:19;;;;;;;2.67;2.47;;;;;;;;;;4685845;30;20219;-84
2021/09/12 07:56:55;;;;;;;2.92;2.72;;;;;;;;;;4686469;30;20195;-85
2021/09/12 07:59:23;;;;;;;2.45;2.25;;;;;;;;;;4688288;30;20742;-83
2021/09/12 08:05:18;;;;;;;2.47;2.20;;;;;;;;;;4683373;30;20219;-84
2021/09/12 08:07:49;;;;;;;3.45;2.83;;;;;;;;;;4684671;30;20573;-82
2021/09/12 08:13:48;;;;;;;1.95;1.85;;;;;;;;;;4636775;30;20246;-82
2021/09/12 08:17:11;;;;;;;;;;;;;;;;;;;;;
2021/09/12 08:23:29;;;;;;;2.35;1.77;;;;;;;;;;4831775;24;20837;-84
2021/09/12 08:26:47;;;;;;;2.78;2.58;;;;;;;;;;4701697;30;20207;-85
2021/09/12 08:29:28;;;;;;;2.60;2.42;;;;;;;;;;4700755;30;20305;-84
2021/09/12 08:34:24;;;;;;;2.78;2.58;;;;;;;;;;4697407;30;20664;-85
2021/09/12 08:36:54;;;;;;;2.63;2.42;;;;;;;;;;4699519;30;20214;-86
2021/09/12 08:39:23;;;;;;;2.75;2.55;;;;;;;;;;4700884;30;20209;-86
2021/09/12 08:41:51;;;;;;;3.13;2.92;;;;;;;;;;4700746;30;20298;-87
2021/09/12 08:44:35;;;;;;;2.45;2.25;;;;;;;;;;4701306;30;20381;-87
2021/09/12 08:47:11;;;;;;;3.30;3.00;;;;;;;;;;4701422;30;20254;-88
2021/09/12 08:49:39;;;;;;;2.42;2.30;;;;;;;;;;4700889;30;20214;-86
2021/09/12 08:52:07;;;;;;;2.97;2.70;;;;;;;;;;4700949;30;20326;-87
2021/09/12 08:54:36;;;;;;;3.03;2.80;;;;;;;;;;4701187;30;20305;-86
2021/09/12 08:57:04;;;;;;;2.60;2.40;;;;;;;;;;4701289;30;20211;-87
2021/09/12 08:59:34;;;;;;;2.42;2.22;;;;;;;;;;4701404;30;20257;-86
2021/09/12 09:02:04;;;;;;;2.80;2.60;;;;;;;;;;4701060;30;20721;-85
2021/09/12 09:04:34;;;;;;;3.50;3.20;;;;;;;;;;4699974;30;20241;-85
2021/09/12 09:07:05;;;;;;;2.90;2.63;;;;;;;;;;4701301;30;20206;-85
2021/09/12 09:09:46;;;;;;;3.38;3.17;;;;;;;;;;4701125;30;20199;-85
2021/09/12 09:12:32;;;;;;;3.85;3.55;;;;;;;;;;4700891;30;20269;-85
2021/09/12 09:15:13;;;;;;;4.32;3.92;;;;;;;;;;4683563;30;20648;-85
2021/09/12 09:17:46;;;;;;;4.68;4.28;;;;;;;;;;4683743;30;20207;-85
2021/09/12 09:20:16;;;;;;;5.30;4.80;;;;;;;;;;4683787;30;20210;-85
2021/09/12 09:22:46;;;;;;;5.63;3.88;;;;;;;;;;4683245;30;20714;-84
2021/09/12 09:25:21;;;;;;;3.00;2.78;;;;;;;;;;4683529;30;20203;-85
2021/09/12 09:27:58;;;;;;;3.45;3.20;;;;;;;;;;4683336;30;20198;-86
2021/09/12 09:30:28;;;;;;;5.95;4.93;;;;;;;;;;4683542;30;20627;-87
2021/09/12 09:33:15;;;;;;;5.93;5.13;;;;;;;;;;4682870;30;20246;-85
2021/09/12 09:35:56;;;;;;;5.07;4.47;;;;;;;;;;4683321;30;20250;-87
2021/09/12 09:38:27;;;;;;;5.50;5.00;;;;;;;;;;4683191;30;20274;-86
2021/09/12 09:41:11;;;;;;;6.40;5.90;;;;;;;;;;4682942;30;20675;-85
2021/09/12 09:43:47;;;;;;;7.47;6.38;;;;;;;;;;4682741;30;20274;-84
2021/09/12 09:46:34;;;;;;;5.65;5.15;;;;;;;;;;4682976;30;20206;-85
2021/09/12 09:49:18;;;;;;;4.45;4.05;;;;;;;;;;4683032;30;20271;-85
2021/09/12 09:51:48;;;;;;;3.92;3.63;;;;;;;;;;4682968;30;20234;-85
2021/09/12 09:54:17;;;;;;;3.88;3.58;;;;;;;;;;4683536;30;20200;-85
2021/09/12 09:56:47;;;;;;;3.78;3.47;;;;;;;;;;4683103;30;20195;-86
2021/09/12 09:59:16;;;;;;;5.00;4.55;;;;;;;;;;4683521;30;20289;-85
2021/09/12 10:01:46;;;;;;;4.20;3.80;;;;;;;;;;4683359;30;20562;-85
2021/09/12 10:04:14;;;;;;;5.68;5.07;;;;;;;;;;4683244;30;20723;-84
2021/09/12 10:06:43;;;;;;;4.78;4.38;;;;;;;;;;4698414;30;20741;-85
2021/09/12 10:09:12;;;;;;;3.38;3.08;;;;;;;;;;4700134;30;20609;-86
2021/09/12 10:11:42;;;;;;;3.25;2.97;;;;;;;;;;4699951;30;20206;-85
2021/09/12 10:14:14;;;;;;;4.03;3.72;;;;;;;;;;4700219;30;20265;-85
2021/09/12 10:16:43;;;;;;;3.65;3.35;;;;;;;;;;4699798;30;20249;-85
2021/09/12 10:19:12;;;;;;;3.35;3.05;;;;;;;;;;4700668;30;20198;-85
2021/09/12 10:21:51;;;;;;;4.05;3.72;;;;;;;;;;4701222;30;20214;-85
2021/09/12 10:24:26;;;;;;;5.50;5.07;;;;;;;;;;4700908;30;20305;-85
2021/09/12 10:26:53;;;;;;;4.22;3.92;;;;;;;;;;4683356;30;20198;-84
2021/09/12 10:29:52;;;;;;;4.05;3.75;;;;;;;;;;4683435;30;20187;-85
2021/09/12 10:32:33;;;;;;;4.00;3.70;;;;;;;;;;4696939;30;20235;-85
2021/09/12 10:35:19;;;;;;;5.82;4.80;;;;;;;;;;4698669;30;20570;-85
2021/09/12 10:38:03;;;;;;;5.40;4.75;;;;;;;;;;4695641;30;20206;-86
2021/09/12 10:41:12;;;;;;;5.15;4.65;;;;;;;;;;4698982;30;20667;-84
2021/09/12 10:43:57;;;;;;;3.25;3.05;;;;;;;;;;4699587;30;20242;-86
2021/09/12 10:46:32;;;;;;;3.75;3.45;;;;;;;;;;4699224;30;20226;-86
2021/09/12 10:49:09;;;;;;;4.82;4.43;;;;;;;;;;4697110;30;20545;-84
2021/09/12 10:51:41;;;;;;;3.80;3.50;;;;;;;;;;4695552;30;20210;-85
2021/09/12 10:54:08;;;;;;;4.57;4.18;;;;;;;;;;4698384;30;20202;-85
2021/09/12 10:56:39;;;;;;;4.30;3.95;;;;;;;;;;4698441;30;20194;-85
2021/09/12 10:59:11;;;;;;;5.07;4.60;;;;;;;;;;4698012;30;20671;-85
2021/09/12 11:01:45;;;;;;;4.47;4.18;;;;;;;;;;4698653;30;20257;-83
2021/09/12 11:04:14;;;;;;;3.92;3.63;;;;;;;;;;4696885;30;20226;-83
2021/09/12 11:06:43;;;;;;;4.40;4.00;;;;;;;;;;4698699;30;20577;-84
2021/09/12 11:09:21;;;;;;;5.53;4.72;;;;;;;;;;4698469;30;20203;-85
2021/09/12 11:11:49;;;;;;;6.18;5.57;;;;;;;;;;4698539;30;20655;-84
2021/09/12 11:14:17;;;;;;;4.95;4.55;;;;;;;;;;4698721;30;20199;-85
2021/09/12 11:16:46;;;;;;;5.88;4.22;;;;;;;;;;4698061;30;20206;-85
2021/09/12 11:19:14;;;;;;;4.70;4.30;;;;;;;;;;4696491;30;20210;-85
2021/09/12 11:21:43;;;;;;;5.55;5.13;;;;;;;;;;4697889;30;20683;-84
2021/09/12 11:24:14;;;;;;;5.20;4.70;;;;;;;;;;4695312;30;20601;-85
2021/09/12 11:26:44;;;;;;;4.20;3.80;;;;;;;;;;4697322;30;20211;-84
2021/09/12 11:29:14;;;;;;;3.60;3.30;;;;;;;;;;4696071;30;20211;-85
2021/09/12 11:31:43;;;;;;;4.05;3.70;;;;;;;;;;4698321;30;20606;-85
2021/09/12 11:34:13;;;;;;;4.70;4.25;;;;;;;;;;4695864;30;20685;-85
2021/09/12 11:36:52;;;;;;;5.38;4.88;;;;;;;;;;4698666;30;20203;-85
2021/09/12 11:39:25;;;;;;;4.15;3.75;;;;;;;;;;4697159;30;20197;-84
2021/09/12 11:41:54;;;;;;;4.15;3.75;;;;;;;;;;4698470;30;20701;-85
2021/09/12 11:44:22;;;;;;;5.28;4.88;;;;;;;;;;4698137;30;20234;-84
2021/09/12 11:46:51;;;;;;;5.35;4.85;;;;;;;;;;4711924;30;20214;-83
2021/09/12 11:49:20;;;;;;;5.72;5.22;;;;;;;;;;4699247;30;20207;-84
2021/09/12 11:51:50;;;;;;;6.78;6.18;;;;;;;;;;4701350;30;20209;-84
2021/09/12 11:54:21;;;;;;;6.75;5.45;;;;;;;;;;4703095;30;20214;-84
2021/09/12 11:57:00;;;;;;;5.78;5.35;;;;;;;;;;4701309;30;20700;-84
2021/09/12 11:59:30;;;;;;;5.35;4.95;;;;;;;;;;4702165;30;20218;-85
2021/09/12 12:01:59;;;;;;;5.35;4.85;;;;;;;;;;4702202;30;20234;-85
2021/09/12 12:04:29;;;;;;;3.53;3.33;;;;;;;;;;4701555;30;20234;-85
2021/09/12 12:06:59;;;;;;;4.88;4.30;;;;;;;;;;4701882;30;20207;-85
2021/09/12 12:09:37;;;;;;;4.63;4.22;;;;;;;;;;4702184;30;20249;-84
2021/09/12 12:12:10;;;;;;;6.20;5.60;;;;;;;;;;4702053;30;20230;-85
2021/09/12 12:14:47;;;;;;;6.25;5.65;;;;;;;;;;4702094;30;20210;-85
2021/09/12 12:17:17;;;;;;;6.30;5.70;;;;;;;;;;4702354;30;20663;-82
2021/09/12 12:19:46;;;;;;;6.43;5.63;;;;;;;;;;4702302;30;20663;-84
2021/09/12 12:22:14;;;;;;;6.28;5.68;;;;;;;;;;4702336;30;20313;-84
2021/09/12 12:24:45;;;;;;;7.07;6.18;;;;;;;;;;4702296;30;20241;-83
2021/09/12 12:27:15;;;;;;;6.45;5.88;;;;;;;;;;4702110;30;20202;-85
2021/09/12 12:29:45;;;;;;;6.55;5.72;;;;;;;;;;4702248;30;20202;-84
2021/09/12 12:32:14;;;;;;;5.50;5.10;;;;;;;;;;4702156;30;20249;-82
2021/09/12 12:34:49;;;;;;;5.47;4.90;;;;;;;;;;4701981;30;20202;-83
2021/09/12 12:37:19;;;;;;;5.40;4.95;;;;;;;;;;4702037;30;20218;-84
2021/09/12 12:39:58;;;;;;;4.50;4.20;;;;;;;;;;4698188;30;20207;-84
2021/09/12 12:42:36;;;;;;;5.38;4.80;;;;;;;;;;4701332;30;20226;-85
2021/09/12 12:45:23;;;;;;;7.43;6.72;;;;;;;;;;4700208;30;20311;-85
2021/09/12 12:47:52;;;;;;;7.13;6.43;;;;;;;;;;4700146;30;20675;-87
2021/09/12 12:50:36;;;;;;;5.72;5.22;;;;;;;;;;4700231;30;20218;-86
2021/09/12 12:53:19;;;;;;;6.53;5.82;;;;;;;;;;4698076;30;20238;-86
2021/09/12 12:55:47;;;;;;;4.00;3.70;;;;;;;;;;4699632;30;20207;-85
2021/09/12 12:58:15;;;;;;;4.43;4.05;;;;;;;;;;4683989;30;20198;-86
2021/09/12 13:00:45;;;;;;;3.42;3.15;;;;;;;;;;4699988;30;20750;-86
2021/09/12 13:03:13;;;;;;;4.15;3.78;;;;;;;;;;4700337;30;20227;-84
2021/09/12 13:05:42;;;;;;;5.25;4.75;;;;;;;;;;4700671;30;20227;-84
2021/09/12 13:08:12;;;;;;;5.40;4.93;;;;;;;;;;4700760;30;20195;-83
2021/09/12 13:10:39;;;;;;;5.78;5.28;;;;;;;;;;4699804;30;20203;-83
2021/09/12 13:13:08;;;;;;;5.53;5.05;;;;;;;;;;4700704;30;20714;-84
2021/09/12 13:15:37;;;;;;;5.75;5.25;;;;;;;;;;4696959;30;20256;-84
2021/09/12 13:18:05;;;;;;;6.47;5.88;;;;;;;;;;4700698;30;20242;-83
2021/09/12 13:20:33;;;;;;;6.53;5.93;;;;;;;;;;4705766;30;20585;-83
2021/09/12 13:23:02;;;;;;;6.20;5.60;;;;;;;;;;4717804;30;20241;-84
2021/09/12 13:25:30;;;;;;;5.38;4.88;;;;;;;;;;4718383;30;20222;-85
2021/09/12 13:28:01;;;;;;;5.22;4.72;;;;;;;;;;4701507;30;20217;-84
2021/09/12 13:30:29;;;;;;;5.15;4.70;;;;;;;;;;4700675;30;20221;-84
2021/09/12 13:32:57;;;;;;;5.35;4.95;;;;;;;;;;4700415;30;20243;-85
2021/09/12 13:35:25;;;;;;;4.13;3.80;;;;;;;;;;4700496;30;20218;-85
2021/09/12 13:37:53;;;;;;;5.03;4.63;;;;;;;;;;4700034;30;20202;-85
2021/09/12 13:40:23;;;;;;;4.95;4.55;;;;;;;;;;4700493;30;20209;-85
2021/09/12 13:42:51;;;;;;;8.27;5.70;;;;;;;;;;4700153;30;20242;-85
2021/09/12 13:45:19;;;;;;;6.55;5.95;;;;;;;;;;4700088;30;20224;-84
2021/09/12 13:47:46;;;;;;;4.93;4.53;;;;;;;;;;4698699;30;20221;-86
2021/09/12 13:50:14;;;;;;;6.43;5.85;;;;;;;;;;4699896;30;20293;-85
2021/09/12 13:52:42;;;;;;;4.75;4.35;;;;;;;;;;4700175;30;20238;-83
2021/09/12 13:55:10;;;;;;;6.07;4.80;;;;;;;;;;4699941;30;20221;-84
2021/09/12 13:57:39;;;;;;;5.22;4.75;;;;;;;;;;4700147;30;20234;-84
2021/09/12 14:00:08;;;;;;;4.90;4.50;;;;;;;;;;4698072;30;20559;-85
2021/09/12 14:02:36;;;;;;;5.82;5.25;;;;;;;;;;4700247;30;20328;-85
2021/09/12 14:05:04;;;;;;;6.93;5.13;;;;;;;;;;4700274;30;20210;-85
2021/09/12 14:07:34;;;;;;;6.60;5.55;;;;;;;;;;4700009;30;20717;-85
2021/09/12 14:10:02;;;;;;;5.65;5.13;;;;;;;;;;4700717;30;20199;-84
2021/09/12 14:12:31;;;;;;;4.93;4.53;;;;;;;;;;4698499;30;20246;-84
2021/09/12 14:15:02;;;;;;;6.10;5.60;;;;;;;;;;4700300;30;20847;-84
2021/09/12 14:17:30;;;;;;;5.53;5.03;;;;;;;;;;4700701;30;20202;-84
2021/09/12 14:19:57;;;;;;;5.72;5.05;;;;;;;;;;4699947;30;20214;-84
2021/09/12 14:22:25;;;;;;;5.63;5.13;;;;;;;;;;4700037;30;20758;-84
2021/09/12 14:24:59;;;;;;;5.55;5.13;;;;;;;;;;4700223;30;20205;-84
2021/09/12 14:27:26;;;;;;;5.15;4.75;;;;;;;;;;4700040;30;20227;-84
2021/09/12 14:29:55;;;;;;;5.40;4.93;;;;;;;;;;4700239;30;20199;-84
2021/09/12 14:32:24;;;;;;;5.03;4.63;;;;;;;;;;4699808;30;20236;-84
2021/09/12 14:34:54;;;;;;;5.00;4.60;;;;;;;;;;4693815;30;20203;-85
2021/09/12 14:37:23;;;;;;;5.65;5.07;;;;;;;;;;4700738;30;20211;-85
2021/09/12 14:40:03;;;;;;;5.22;4.82;;;;;;;;;;4701251;30;20225;-85
2021/09/12 14:42:32;;;;;;;3.67;3.38;;;;;;;;;;4700875;30;20234;-84
2021/09/12 14:44:59;;;;;;;5.07;4.68;;;;;;;;;;4700450;30;20235;-84
2021/09/12 14:47:29;;;;;;;7.45;5.68;;;;;;;;;;4700408;30;20215;-84
2021/09/12 14:49:57;;;;;;;3.97;3.67;;;;;;;;;;4700232;30;20226;-84
2021/09/12 14:52:24;;;;;;;3.63;3.33;;;;;;;;;;4700575;30;20249;-85
2021/09/12 14:54:52;;;;;;;5.18;4.78;;;;;;;;;;4699354;30;20207;-84
2021/09/12 14:57:19;;;;;;;5.35;4.85;;;;;;;;;;4694717;30;20202;-84
2021/09/12 14:59:48;;;;;;;4.43;4.05;;;;;;;;;;4700730;30;20214;-85
2021/09/12 15:02:15;;;;;;;6.20;3.80;;;;;;;;;;4700490;30;20233;-85
2021/09/12 15:04:45;;;;;;;4.13;3.83;;;;;;;;;;4700009;30;20199;-85
2021/09/12 15:07:13;;;;;;;4.40;4.00;;;;;;;;;;4699560;30;20230;-84
2021/09/12 15:09:42;;;;;;;3.00;2.72;;;;;;;;;;4699802;30;20202;-84
2021/09/12 15:12:10;;;;;;;2.88;2.67;;;;;;;;;;4699900;30;20222;-84